sensor_id;sensor_type;location;lat;lon;timestamp;pressure;altitude;pressure_sealevel;temperature;humidity
20889;BME280;10604;51.976;7.594;2023-03-01T00:01:20;102341.16;;;-1.94;84.86
20889;BME280;10604;51.976;7.594;2023-03-01T00:03:46;102354.00;;;-1.96;85.00
20889;BME280;10604;51.976;7.594;2023-03-01T00:06:12;102345.44;;;-2.13;85.01
20889;BME280;10604;51.976;7.594;2023-03-01T00:08:37;102347.38;;;-2.09;85.45
20889;BME280;10604;51.976;7.594;2023-03-01T00:11:20;102348.09;;;-2.11;86.39
20889;BME280;10604;51.976;7.594;2023-03-01T00:13:48;102346.78;;;-2.03;85.71
20889;BME280;10604;51.976;7.594;2023-03-01T00:16:19;102346.50;;;-2.09;85.44
20889;BME280;10604;51.976;7.594;2023-03-01T00:18:45;102353.44;;;-2.08;84.80
20889;BME280;10604;51.976;7.594;2023-03-01T00:21:11;102346.66;;;-2.06;84.85
20889;BME280;10604;51.976;7.594;2023-03-01T00:23:37;102352.09;;;-2.18;84.82
20889;BME280;10604;51.976;7.594;2023-03-01T00:26:06;102345.69;;;-2.26;84.99
20889;BME280;10604;51.976;7.594;2023-03-01T00:28:32;102341.75;;;-2.18;85.37
20889;BME280;10604;51.976;7.594;2023-03-01T00:31:06;102341.03;;;-2.15;86.00
20889;BME280;10604;51.976;7.594;2023-03-01T00:33:32;102348.41;;;-2.23;86.25
20889;BME280;10604;51.976;7.594;2023-03-01T00:35:58;102339.72;;;-2.25;86.33
20889;BME280;10604;51.976;7.594;2023-03-01T00:38:24;102343.25;;;-2.23;86.43
20889;BME280;10604;51.976;7.594;2023-03-01T00:40:49;102339.72;;;-2.25;86.01
20889;BME280;10604;51.976;7.594;2023-03-01T00:43:14;102341.31;;;-2.27;85.45
20889;BME280;10604;51.976;7.594;2023-03-01T00:45:40;102338.75;;;-2.27;85.64
20889;BME280;10604;51.976;7.594;2023-03-01T00:48:06;102327.47;;;-2.29;85.50
20889;BME280;10604;51.976;7.594;2023-03-01T00:50:31;102330.97;;;-2.27;85.26
20889;BME280;10604;51.976;7.594;2023-03-01T00:52:57;102329.25;;;-2.28;85.44
20889;BME280;10604;51.976;7.594;2023-03-01T00:55:23;102329.69;;;-2.37;85.20
20889;BME280;10604;51.976;7.594;2023-03-01T00:57:48;102333.38;;;-2.49;85.30
20889;BME280;10604;51.976;7.594;2023-03-01T01:00:14;102328.22;;;-2.49;85.35
20889;BME280;10604;51.976;7.594;2023-03-01T01:02:40;102327.03;;;-2.38;86.17
20889;BME280;10604;51.976;7.594;2023-03-01T01:05:05;102326.94;;;-2.22;85.30
20889;BME280;10604;51.976;7.594;2023-03-01T01:07:32;102334.59;;;-2.41;85.32
20889;BME280;10604;51.976;7.594;2023-03-01T01:09:57;102329.81;;;-2.51;85.71
20889;BME280;10604;51.976;7.594;2023-03-01T01:12:22;102329.59;;;-2.38;85.88
20889;BME280;10604;51.976;7.594;2023-03-01T01:14:48;102330.41;;;-2.39;85.59
20889;BME280;10604;51.976;7.594;2023-03-01T01:17:13;102330.66;;;-2.34;85.34
20889;BME280;10604;51.976;7.594;2023-03-01T01:19:39;102330.69;;;-2.33;85.52
20889;BME280;10604;51.976;7.594;2023-03-01T01:22:04;102328.28;;;-2.30;86.02
20889;BME280;10604;51.976;7.594;2023-03-01T01:24:30;102326.13;;;-2.39;85.98
20889;BME280;10604;51.976;7.594;2023-03-01T01:26:55;102318.75;;;-2.31;86.01
20889;BME280;10604;51.976;7.594;2023-03-01T01:29:21;102309.59;;;-2.24;85.43
20889;BME280;10604;51.976;7.594;2023-03-01T01:31:46;102315.19;;;-2.33;84.92
20889;BME280;10604;51.976;7.594;2023-03-01T01:34:15;102327.25;;;-2.51;85.14
20889;BME280;10604;51.976;7.594;2023-03-01T01:36:40;102319.50;;;-2.51;85.96
20889;BME280;10604;51.976;7.594;2023-03-01T01:39:06;102320.38;;;-2.51;85.42
20889;BME280;10604;51.976;7.594;2023-03-01T01:41:33;102317.72;;;-2.52;85.34
20889;BME280;10604;51.976;7.594;2023-03-01T01:49:19;102312.50;;;-2.36;85.47
20889;BME280;10604;51.976;7.594;2023-03-01T01:51:47;102307.69;;;-2.46;85.62
20889;BME280;10604;51.976;7.594;2023-03-01T01:54:16;102298.84;;;-2.51;85.86
20889;BME280;10604;51.976;7.594;2023-03-01T01:56:48;102293.81;;;-2.48;85.23
20889;BME280;10604;51.976;7.594;2023-03-01T01:59:15;102290.41;;;-2.47;85.66
20889;BME280;10604;51.976;7.594;2023-03-01T02:01:40;102293.69;;;-2.51;85.23
20889;BME280;10604;51.976;7.594;2023-03-01T02:04:06;102281.25;;;-2.41;86.11
20889;BME280;10604;51.976;7.594;2023-03-01T02:06:35;102284.16;;;-2.52;85.35
20889;BME280;10604;51.976;7.594;2023-03-01T02:09:14;102279.66;;;-2.56;85.86
20889;BME280;10604;51.976;7.594;2023-03-01T02:11:41;102276.56;;;-2.49;85.84
20889;BME280;10604;51.976;7.594;2023-03-01T02:14:07;102281.81;;;-2.65;86.36
20889;BME280;10604;51.976;7.594;2023-03-01T02:16:32;102271.56;;;-2.64;86.30
20889;BME280;10604;51.976;7.594;2023-03-01T02:18:59;102268.44;;;-2.74;86.42
20889;BME280;10604;51.976;7.594;2023-03-01T02:21:37;102273.78;;;-2.71;86.81
20889;BME280;10604;51.976;7.594;2023-03-01T02:24:14;102275.66;;;-2.67;86.64
20889;BME280;10604;51.976;7.594;2023-03-01T02:26:48;102265.34;;;-2.67;87.27
20889;BME280;10604;51.976;7.594;2023-03-01T02:29:15;102272.88;;;-2.72;86.55
20889;BME280;10604;51.976;7.594;2023-03-01T02:31:41;102265.06;;;-2.73;87.32
20889;BME280;10604;51.976;7.594;2023-03-01T02:34:08;102263.28;;;-2.74;87.19
20889;BME280;10604;51.976;7.594;2023-03-01T02:36:38;102269.13;;;-2.79;87.21
20889;BME280;10604;51.976;7.594;2023-03-01T02:39:06;102266.31;;;-2.65;86.78
20889;BME280;10604;51.976;7.594;2023-03-01T02:41:36;102270.81;;;-2.61;86.97
20889;BME280;10604;51.976;7.594;2023-03-01T02:44:03;102273.91;;;-2.68;87.07
20889;BME280;10604;51.976;7.594;2023-03-01T02:46:29;102266.38;;;-2.82;86.92
20889;BME280;10604;51.976;7.594;2023-03-01T02:48:56;102275.69;;;-2.85;87.06
20889;BME280;10604;51.976;7.594;2023-03-01T02:51:33;102277.72;;;-2.96;87.22
20889;BME280;10604;51.976;7.594;2023-03-01T02:54:12;102274.19;;;-2.80;87.84
20889;BME280;10604;51.976;7.594;2023-03-01T02:56:41;102269.47;;;-2.89;87.65
20889;BME280;10604;51.976;7.594;2023-03-01T02:59:08;102279.28;;;-2.99;87.39
20889;BME280;10604;51.976;7.594;2023-03-01T03:01:34;102272.09;;;-3.05;88.05
20889;BME280;10604;51.976;7.594;2023-03-01T03:04:05;102278.00;;;-2.90;88.15
20889;BME280;10604;51.976;7.594;2023-03-01T03:06:31;102280.66;;;-3.06;87.78
20889;BME280;10604;51.976;7.594;2023-03-01T03:08:56;102275.44;;;-2.90;87.83
20889;BME280;10604;51.976;7.594;2023-03-01T03:11:22;102270.94;;;-2.94;87.54
20889;BME280;10604;51.976;7.594;2023-03-01T03:13:48;102273.56;;;-3.10;87.56
20889;BME280;10604;51.976;7.594;2023-03-01T03:16:14;102254.25;;;-3.18;87.95
20889;BME280;10604;51.976;7.594;2023-03-01T03:18:40;102257.78;;;-3.16;88.08
20889;BME280;10604;51.976;7.594;2023-03-01T03:21:09;102257.00;;;-3.15;88.23
20889;BME280;10604;51.976;7.594;2023-03-01T03:23:36;102263.25;;;-3.10;88.15
20889;BME280;10604;51.976;7.594;2023-03-01T03:26:02;102265.03;;;-3.09;88.10
20889;BME280;10604;51.976;7.594;2023-03-01T03:28:30;102251.91;;;-2.96;87.67
20889;BME280;10604;51.976;7.594;2023-03-01T03:30:56;102253.09;;;-3.07;87.40
20889;BME280;10604;51.976;7.594;2023-03-01T03:33:21;102254.41;;;-3.15;87.77
20889;BME280;10604;51.976;7.594;2023-03-01T03:35:48;102239.41;;;-3.06;87.62
20889;BME280;10604;51.976;7.594;2023-03-01T03:38:16;102251.03;;;-2.96;87.62
20889;BME280;10604;51.976;7.594;2023-03-01T03:40:59;102239.41;;;-3.06;87.43
20889;BME280;10604;51.976;7.594;2023-03-01T03:43:29;102243.28;;;-3.14;87.86
20889;BME280;10604;51.976;7.594;2023-03-01T03:45:55;102236.56;;;-3.28;88.47
20889;BME280;10604;51.976;7.594;2023-03-01T03:48:22;102234.19;;;-3.24;88.44
20889;BME280;10604;51.976;7.594;2023-03-01T03:50:50;102232.03;;;-3.32;88.18
20889;BME280;10604;51.976;7.594;2023-03-01T03:53:16;102244.44;;;-3.25;88.24
20889;BME280;10604;51.976;7.594;2023-03-01T03:55:41;102235.38;;;-3.17;88.50
20889;BME280;10604;51.976;7.594;2023-03-01T03:58:08;102236.06;;;-3.21;88.91
20889;BME280;10604;51.976;7.594;2023-03-01T04:00:39;102235.09;;;-3.23;88.74
20889;BME280;10604;51.976;7.594;2023-03-01T04:03:05;102237.19;;;-3.32;88.56
20889;BME280;10604;51.976;7.594;2023-03-01T04:05:31;102237.88;;;-3.36;88.53
20889;BME280;10604;51.976;7.594;2023-03-01T04:07:57;102236.38;;;-3.31;88.15
20889;BME280;10604;51.976;7.594;2023-03-01T04:10:34;102235.25;;;-3.20;88.47
20889;BME280;10604;51.976;7.594;2023-03-01T04:13:00;102240.06;;;-3.26;88.61
20889;BME280;10604;51.976;7.594;2023-03-01T04:15:26;102231.84;;;-3.19;88.82
20889;BME280;10604;51.976;7.594;2023-03-01T04:17:53;102226.84;;;-3.16;88.33
20889;BME280;10604;51.976;7.594;2023-03-01T04:20:22;102221.84;;;-3.13;88.20
20889;BME280;10604;51.976;7.594;2023-03-01T04:23:00;102218.88;;;-3.03;87.95
20889;BME280;10604;51.976;7.594;2023-03-01T04:25:48;102211.81;;;-3.07;87.54
20889;BME280;10604;51.976;7.594;2023-03-01T04:28:22;102204.28;;;-3.02;87.87
20889;BME280;10604;51.976;7.594;2023-03-01T04:30:50;102210.78;;;-3.10;87.51
20889;BME280;10604;51.976;7.594;2023-03-01T04:33:16;102204.72;;;-3.11;87.85
20889;BME280;10604;51.976;7.594;2023-03-01T04:35:41;102212.53;;;-3.27;88.02
20889;BME280;10604;51.976;7.594;2023-03-01T04:38:07;102209.50;;;-3.36;88.32
20889;BME280;10604;51.976;7.594;2023-03-01T04:40:33;102211.06;;;-3.22;88.40
20889;BME280;10604;51.976;7.594;2023-03-01T04:42:59;102207.69;;;-3.21;88.47
20889;BME280;10604;51.976;7.594;2023-03-01T04:45:24;102201.75;;;-3.36;88.34
20889;BME280;10604;51.976;7.594;2023-03-01T04:47:49;102203.03;;;-3.28;88.13
20889;BME280;10604;51.976;7.594;2023-03-01T04:50:18;102201.91;;;-3.33;87.99
20889;BME280;10604;51.976;7.594;2023-03-01T04:52:46;102209.59;;;-3.35;88.09
20889;BME280;10604;51.976;7.594;2023-03-01T04:55:12;102208.53;;;-3.38;88.27
20889;BME280;10604;51.976;7.594;2023-03-01T04:57:38;102211.91;;;-3.39;88.01
20889;BME280;10604;51.976;7.594;2023-03-01T05:00:07;102211.19;;;-3.37;88.44
20889;BME280;10604;51.976;7.594;2023-03-01T05:02:53;102211.59;;;-3.45;88.22
20889;BME280;10604;51.976;7.594;2023-03-01T05:05:34;102208.06;;;-3.47;88.71
20889;BME280;10604;51.976;7.594;2023-03-01T05:08:04;102211.78;;;-3.42;88.73
20889;BME280;10604;51.976;7.594;2023-03-01T05:10:31;102215.19;;;-3.60;88.95
20889;BME280;10604;51.976;7.594;2023-03-01T05:12:58;102202.78;;;-3.50;89.60
20889;BME280;10604;51.976;7.594;2023-03-01T05:15:29;102209.69;;;-3.49;89.13
20889;BME280;10604;51.976;7.594;2023-03-01T05:17:56;102204.06;;;-3.59;89.24
20889;BME280;10604;51.976;7.594;2023-03-01T05:20:23;102209.56;;;-3.69;89.26
20889;BME280;10604;51.976;7.594;2023-03-01T05:22:50;102208.84;;;-3.66;89.23
20889;BME280;10604;51.976;7.594;2023-03-01T05:25:15;102205.28;;;-3.68;89.25
20889;BME280;10604;51.976;7.594;2023-03-01T05:27:41;102206.97;;;-3.69;89.29
20889;BME280;10604;51.976;7.594;2023-03-01T05:30:07;102214.06;;;-3.65;89.55
20889;BME280;10604;51.976;7.594;2023-03-01T05:32:45;102210.53;;;-3.67;89.53
20889;BME280;10604;51.976;7.594;2023-03-01T05:35:13;102212.13;;;-3.69;89.56
20889;BME280;10604;51.976;7.594;2023-03-01T05:37:43;102213.75;;;-3.71;89.43
20889;BME280;10604;51.976;7.594;2023-03-01T05:40:14;102203.75;;;-3.65;89.47
20889;BME280;10604;51.976;7.594;2023-03-01T05:42:54;102211.88;;;-3.57;89.34
20889;BME280;10604;51.976;7.594;2023-03-01T05:45:20;102215.97;;;-3.61;89.10
20889;BME280;10604;51.976;7.594;2023-03-01T05:47:48;102211.41;;;-3.66;88.97
20889;BME280;10604;51.976;7.594;2023-03-01T05:50:34;102208.59;;;-3.71;88.95
20889;BME280;10604;51.976;7.594;2023-03-01T05:53:05;102204.88;;;-3.76;88.78
20889;BME280;10604;51.976;7.594;2023-03-01T05:55:31;102205.22;;;-3.70;89.45
20889;BME280;10604;51.976;7.594;2023-03-01T05:58:01;102198.59;;;-3.65;89.22
20889;BME280;10604;51.976;7.594;2023-03-01T06:00:28;102203.59;;;-3.68;89.15
20889;BME280;10604;51.976;7.594;2023-03-01T06:02:54;102198.31;;;-3.71;89.38
20889;BME280;10604;51.976;7.594;2023-03-01T06:05:20;102194.91;;;-3.70;89.00
20889;BME280;10604;51.976;7.594;2023-03-01T06:07:46;102198.13;;;-3.74;88.73
20889;BME280;10604;51.976;7.594;2023-03-01T06:10:12;102189.28;;;-3.79;88.79
20889;BME280;10604;51.976;7.594;2023-03-01T06:12:39;102195.91;;;-3.84;89.82
20889;BME280;10604;51.976;7.594;2023-03-01T06:15:06;102198.13;;;-3.74;89.81
20889;BME280;10604;51.976;7.594;2023-03-01T06:17:33;102197.66;;;-3.83;88.98
20889;BME280;10604;51.976;7.594;2023-03-01T06:20:11;102199.13;;;-3.88;89.41
20889;BME280;10604;51.976;7.594;2023-03-01T06:22:38;102192.34;;;-3.70;89.56
20889;BME280;10604;51.976;7.594;2023-03-01T06:25:04;102197.50;;;-3.86;89.01
20889;BME280;10604;51.976;7.594;2023-03-01T06:27:30;102199.09;;;-3.72;89.17
20889;BME280;10604;51.976;7.594;2023-03-01T06:29:55;102192.25;;;-3.71;88.94
20889;BME280;10604;51.976;7.594;2023-03-01T06:32:20;102192.66;;;-3.80;89.56
20889;BME280;10604;51.976;7.594;2023-03-01T06:34:46;102201.81;;;-3.69;89.00
20889;BME280;10604;51.976;7.594;2023-03-01T06:37:11;102204.47;;;-3.67;89.35
20889;BME280;10604;51.976;7.594;2023-03-01T06:39:37;102205.69;;;-3.61;89.38
20889;BME280;10604;51.976;7.594;2023-03-01T06:42:02;102204.38;;;-3.52;89.65
20889;BME280;10604;51.976;7.594;2023-03-01T06:44:28;102206.47;;;-3.62;89.44
20889;BME280;10604;51.976;7.594;2023-03-01T06:46:53;102207.66;;;-3.55;89.45
20889;BME280;10604;51.976;7.594;2023-03-01T06:49:19;102208.91;;;-3.65;88.74
20889;BME280;10604;51.976;7.594;2023-03-01T06:51:45;102210.38;;;-3.70;89.34
20889;BME280;10604;51.976;7.594;2023-03-01T06:54:11;102203.47;;;-3.71;89.48
20889;BME280;10604;51.976;7.594;2023-03-01T06:56:37;102205.69;;;-3.61;89.82
20889;BME280;10604;51.976;7.594;2023-03-01T06:59:02;102192.16;;;-3.57;89.47
20889;BME280;10604;51.976;7.594;2023-03-01T07:01:29;102200.81;;;-3.55;89.53
20889;BME280;10604;51.976;7.594;2023-03-01T07:03:55;102203.75;;;-3.48;89.98
20889;BME280;10604;51.976;7.594;2023-03-01T07:06:21;102200.78;;;-3.38;89.76
20889;BME280;10604;51.976;7.594;2023-03-01T07:08:46;102195.56;;;-3.40;89.58
20889;BME280;10604;51.976;7.594;2023-03-01T07:11:12;102193.53;;;-3.29;89.75
20889;BME280;10604;51.976;7.594;2023-03-01T07:13:38;102189.47;;;-3.24;89.17
20889;BME280;10604;51.976;7.594;2023-03-01T07:16:03;102189.25;;;-3.11;89.36
20889;BME280;10604;51.976;7.594;2023-03-01T07:18:29;102185.72;;;-3.13;89.32
20889;BME280;10604;51.976;7.594;2023-03-01T07:20:54;102178.50;;;-2.85;89.44
20889;BME280;10604;51.976;7.594;2023-03-01T07:23:20;102182.81;;;-2.84;89.54
20889;BME280;10604;51.976;7.594;2023-03-01T07:25:51;102183.66;;;-2.85;89.73
20889;BME280;10604;51.976;7.594;2023-03-01T07:28:17;102180.63;;;-2.94;89.60
20889;BME280;10604;51.976;7.594;2023-03-01T07:30:42;102170.75;;;-2.85;89.60
20889;BME280;10604;51.976;7.594;2023-03-01T07:33:08;102180.84;;;-2.71;90.24
20889;BME280;10604;51.976;7.594;2023-03-01T07:35:33;102183.63;;;-2.49;90.13
20889;BME280;10604;51.976;7.594;2023-03-01T07:37:58;102184.09;;;-2.39;90.33
20889;BME280;10604;51.976;7.594;2023-03-01T07:40:24;102180.63;;;-2.20;89.46
20889;BME280;10604;51.976;7.594;2023-03-01T07:42:55;102173.00;;;-1.98;88.80
20889;BME280;10604;51.976;7.594;2023-03-01T07:45:20;102176.84;;;-2.09;88.23
20889;BME280;10604;51.976;7.594;2023-03-01T07:47:46;102171.50;;;-1.73;88.56
20889;BME280;10604;51.976;7.594;2023-03-01T07:50:11;102170.94;;;-1.66;87.71
20889;BME280;10604;51.976;7.594;2023-03-01T07:52:36;102170.50;;;-1.56;86.99
20889;BME280;10604;51.976;7.594;2023-03-01T07:55:02;102179.59;;;-1.45;86.78
20889;BME280;10604;51.976;7.594;2023-03-01T07:57:27;102183.47;;;-1.35;86.00
20889;BME280;10604;51.976;7.594;2023-03-01T07:59:52;102180.22;;;-1.09;85.48
20889;BME280;10604;51.976;7.594;2023-03-01T08:02:18;102175.41;;;-0.79;84.56
20889;BME280;10604;51.976;7.594;2023-03-01T08:04:43;102172.56;;;-0.63;83.15
20889;BME280;10604;51.976;7.594;2023-03-01T08:07:09;102174.09;;;-0.68;83.21
20889;BME280;10604;51.976;7.594;2023-03-01T08:09:35;102177.81;;;-0.61;83.29
20889;BME280;10604;51.976;7.594;2023-03-01T08:12:02;102174.56;;;-0.56;82.75
20889;BME280;10604;51.976;7.594;2023-03-01T08:14:28;102173.03;;;-0.51;82.70
20889;BME280;10604;51.976;7.594;2023-03-01T08:16:53;102173.38;;;-0.42;82.83
20889;BME280;10604;51.976;7.594;2023-03-01T08:19:20;102173.06;;;-0.27;81.73
20889;BME280;10604;51.976;7.594;2023-03-01T08:21:45;102177.84;;;-0.15;81.65
20889;BME280;10604;51.976;7.594;2023-03-01T08:24:11;102173.78;;;-0.07;81.05
20889;BME280;10604;51.976;7.594;2023-03-01T08:26:36;102169.19;;;-0.14;80.92
20889;BME280;10604;51.976;7.594;2023-03-01T08:29:02;102169.06;;;0.05;81.18
20889;BME280;10604;51.976;7.594;2023-03-01T08:31:31;102167.41;;;0.07;80.87
20889;BME280;10604;51.976;7.594;2023-03-01T08:33:59;102164.69;;;0.28;80.58
20889;BME280;10604;51.976;7.594;2023-03-01T08:36:28;102169.38;;;0.63;80.55
20889;BME280;10604;51.976;7.594;2023-03-01T08:38:55;102157.41;;;0.68;79.34
20889;BME280;10604;51.976;7.594;2023-03-01T08:41:20;102155.16;;;0.79;79.26
20889;BME280;10604;51.976;7.594;2023-03-01T08:43:46;102160.25;;;0.76;79.37
20889;BME280;10604;51.976;7.594;2023-03-01T08:46:12;102152.41;;;1.01;78.02
20889;BME280;10604;51.976;7.594;2023-03-01T08:48:37;102154.78;;;1.21;77.15
20889;BME280;10604;51.976;7.594;2023-03-01T08:51:08;102156.81;;;1.31;77.25
20889;BME280;10604;51.976;7.594;2023-03-01T08:53:34;102156.97;;;1.37;76.48
20889;BME280;10604;51.976;7.594;2023-03-01T08:56:00;102154.72;;;1.47;76.39
20889;BME280;10604;51.976;7.594;2023-03-01T08:58:28;102153.91;;;1.50;75.79
20889;BME280;10604;51.976;7.594;2023-03-01T09:00:53;102157.91;;;1.67;74.68
20889;BME280;10604;51.976;7.594;2023-03-01T09:03:18;102149.59;;;1.80;75.01
20889;BME280;10604;51.976;7.594;2023-03-01T09:05:44;102138.03;;;2.01;74.32
20889;BME280;10604;51.976;7.594;2023-03-01T09:08:11;102143.00;;;1.91;74.22
20889;BME280;10604;51.976;7.594;2023-03-01T09:10:38;102146.69;;;2.00;74.69
20889;BME280;10604;51.976;7.594;2023-03-01T09:13:04;102141.16;;;2.19;72.77
20889;BME280;10604;51.976;7.594;2023-03-01T09:15:29;102141.56;;;2.03;72.35
20889;BME280;10604;51.976;7.594;2023-03-01T09:17:55;102142.88;;;2.18;71.62
20889;BME280;10604;51.976;7.594;2023-03-01T09:20:20;102143.97;;;2.28;71.27
20889;BME280;10604;51.976;7.594;2023-03-01T09:22:46;102148.59;;;2.38;72.01
20889;BME280;10604;51.976;7.594;2023-03-01T09:25:12;102140.34;;;2.54;71.14
20889;BME280;10604;51.976;7.594;2023-03-01T09:27:37;102128.84;;;2.81;69.54
20889;BME280;10604;51.976;7.594;2023-03-01T09:30:03;102132.50;;;2.89;70.42
20889;BME280;10604;51.976;7.594;2023-03-01T09:32:32;102134.03;;;2.81;69.85
20889;BME280;10604;51.976;7.594;2023-03-01T09:34:57;102138.03;;;3.02;68.96
20889;BME280;10604;51.976;7.594;2023-03-01T09:37:33;102136.38;;;3.04;68.70
20889;BME280;10604;51.976;7.594;2023-03-01T09:39:59;102136.84;;;3.26;66.25
20889;BME280;10604;51.976;7.594;2023-03-01T09:42:25;102127.78;;;3.47;66.54
20889;BME280;10604;51.976;7.594;2023-03-01T09:44:54;102124.97;;;3.80;66.20
20889;BME280;10604;51.976;7.594;2023-03-01T09:47:28;102113.78;;;4.32;64.34
20889;BME280;10604;51.976;7.594;2023-03-01T09:50:14;102117.91;;;4.71;62.76
20889;BME280;10604;51.976;7.594;2023-03-01T09:52:49;102126.63;;;5.29;58.99
20889;BME280;10604;51.976;7.594;2023-03-01T09:55:20;102118.78;;;5.94;57.41
20889;BME280;10604;51.976;7.594;2023-03-01T10:00:39;102109.03;;;6.71;50.79
20889;BME280;10604;51.976;7.594;2023-03-01T10:08:33;102118.16;;;7.23;48.07
20889;BME280;10604;51.976;7.594;2023-03-01T10:11:02;102112.19;;;7.61;46.43
20889;BME280;10604;51.976;7.594;2023-03-01T10:13:48;102112.19;;;7.55;46.40
20889;BME280;10604;51.976;7.594;2023-03-01T10:16:27;102108.63;;;7.46;47.41
20889;BME280;10604;51.976;7.594;2023-03-01T10:19:00;102106.13;;;7.69;46.13
20889;BME280;10604;51.976;7.594;2023-03-01T10:21:28;102093.09;;;8.10;46.82
20889;BME280;10604;51.976;7.594;2023-03-01T10:24:08;102100.94;;;7.88;47.07
20889;BME280;10604;51.976;7.594;2023-03-01T10:29:08;102094.06;;;8.37;45.66
20889;BME280;10604;51.976;7.594;2023-03-01T10:31:48;102100.13;;;8.14;45.20
20889;BME280;10604;51.976;7.594;2023-03-01T10:34:37;102107.22;;;8.66;44.86
20889;BME280;10604;51.976;7.594;2023-03-01T10:37:14;102094.94;;;8.43;45.21
20889;BME280;10604;51.976;7.594;2023-03-01T10:40:10;102096.63;;;8.12;44.69
20889;BME280;10604;51.976;7.594;2023-03-01T10:42:38;102083.53;;;8.67;43.69
20889;BME280;10604;51.976;7.594;2023-03-01T10:45:36;102085.31;;;8.80;43.43
20889;BME280;10604;51.976;7.594;2023-03-01T10:50:40;102082.47;;;9.56;42.24
20889;BME280;10604;51.976;7.594;2023-03-01T10:53:23;102078.94;;;9.63;42.16
20889;BME280;10604;51.976;7.594;2023-03-01T10:56:11;102074.59;;;9.52;42.68
20889;BME280;10604;51.976;7.594;2023-03-01T10:58:40;102077.25;;;9.41;42.06
20889;BME280;10604;51.976;7.594;2023-03-01T11:01:28;102072.88;;;9.45;41.65
20889;BME280;10604;51.976;7.594;2023-03-01T11:04:13;102072.72;;;9.76;41.48
20889;BME280;10604;51.976;7.594;2023-03-01T11:06:40;102070.19;;;9.52;41.51
20889;BME280;10604;51.976;7.594;2023-03-01T11:09:26;102066.28;;;10.26;41.07
20889;BME280;10604;51.976;7.594;2023-03-01T11:12:00;102065.53;;;10.03;41.09
20889;BME280;10604;51.976;7.594;2023-03-01T11:14:27;102064.41;;;10.40;40.02
20889;BME280;10604;51.976;7.594;2023-03-01T11:17:05;102053.88;;;10.40;39.94
20889;BME280;10604;51.976;7.594;2023-03-01T11:19:31;102050.47;;;10.23;39.98
20889;BME280;10604;51.976;7.594;2023-03-01T11:22:04;102047.06;;;10.03;40.46
20889;BME280;10604;51.976;7.594;2023-03-01T11:24:54;102052.38;;;9.97;40.86
20889;BME280;10604;51.976;7.594;2023-03-01T11:27:35;102036.56;;;9.97;40.59
20889;BME280;10604;51.976;7.594;2023-03-01T11:30:13;102051.41;;;10.13;39.88
20889;BME280;10604;51.976;7.594;2023-03-01T11:32:45;102043.47;;;10.19;40.20
20889;BME280;10604;51.976;7.594;2023-03-01T11:35:18;102043.81;;;9.64;41.64
20889;BME280;10604;51.976;7.594;2023-03-01T11:38:19;102050.94;;;9.32;42.41
20889;BME280;10604;51.976;7.594;2023-03-01T11:40:57;102042.13;;;9.48;40.38
20889;BME280;10604;51.976;7.594;2023-03-01T11:43:30;102040.25;;;9.71;40.93
20889;BME280;10604;51.976;7.594;2023-03-01T11:51:38;102047.50;;;9.12;42.35
20889;BME280;10604;51.976;7.594;2023-03-01T11:56:50;102041.22;;;9.57;40.29
20889;BME280;10604;51.976;7.594;2023-03-01T12:02:47;102043.09;;;9.29;42.69
20889;BME280;10604;51.976;7.594;2023-03-01T12:18:48;102011.25;;;9.76;40.94
20889;BME280;10604;51.976;7.594;2023-03-01T12:32:19;101986.03;;;9.25;41.45
20889;BME280;10604;51.976;7.594;2023-03-01T12:35:25;101994.41;;;9.97;40.45
20889;BME280;10604;51.976;7.594;2023-03-01T12:38:04;101986.81;;;9.47;41.27
20889;BME280;10604;51.976;7.594;2023-03-01T12:40:46;101989.53;;;9.33;42.18
20889;BME280;10604;51.976;7.594;2023-03-01T12:49:08;101970.13;;;9.49;42.60
20889;BME280;10604;51.976;7.594;2023-03-01T12:51:37;101968.50;;;9.30;42.08
20889;BME280;10604;51.976;7.594;2023-03-01T12:54:21;101955.97;;;9.68;42.02
20889;BME280;10604;51.976;7.594;2023-03-01T12:56:48;101957.84;;;9.48;41.11
20889;BME280;10604;51.976;7.594;2023-03-01T13:07:35;101935.13;;;9.32;41.37
20889;BME280;10604;51.976;7.594;2023-03-01T13:10:24;101945.59;;;9.38;41.76
20889;BME280;10604;51.976;7.594;2023-03-01T13:18:00;101938.66;;;9.25;40.74
20889;BME280;10604;51.976;7.594;2023-03-01T13:20:30;101944.00;;;9.13;40.88
20889;BME280;10604;51.976;7.594;2023-03-01T13:31:04;101937.66;;;9.49;40.76
20889;BME280;10604;51.976;7.594;2023-03-01T13:35:57;101927.22;;;9.36;41.08
20889;BME280;10604;51.976;7.594;2023-03-01T13:41:12;101929.81;;;9.44;40.41
20889;BME280;10604;51.976;7.594;2023-03-01T13:43:40;101927.97;;;9.55;40.23
20889;BME280;10604;51.976;7.594;2023-03-01T13:46:25;101912.16;;;9.58;39.57
20889;BME280;10604;51.976;7.594;2023-03-01T13:48:53;101910.19;;;9.85;39.48
20889;BME280;10604;51.976;7.594;2023-03-01T13:51:23;101913.13;;;9.40;40.44
20889;BME280;10604;51.976;7.594;2023-03-01T13:53:51;101903.59;;;9.23;40.53
20889;BME280;10604;51.976;7.594;2023-03-01T13:56:21;101903.59;;;9.17;40.70
20889;BME280;10604;51.976;7.594;2023-03-01T13:58:54;101889.66;;;9.02;40.37
20889;BME280;10604;51.976;7.594;2023-03-01T14:01:29;101901.19;;;8.73;41.36
20889;BME280;10604;51.976;7.594;2023-03-01T14:03:55;101886.41;;;8.37;41.53
20889;BME280;10604;51.976;7.594;2023-03-01T14:06:26;101890.78;;;8.30;40.96
20889;BME280;10604;51.976;7.594;2023-03-01T14:09:19;101891.63;;;8.24;41.31
20889;BME280;10604;51.976;7.594;2023-03-01T14:11:58;101875.91;;;8.15;41.66
20889;BME280;10604;51.976;7.594;2023-03-01T14:14:37;101875.03;;;8.04;43.38
20889;BME280;10604;51.976;7.594;2023-03-01T14:20:29;101872.44;;;7.59;43.96
20889;BME280;10604;51.976;7.594;2023-03-01T14:22:58;101876.81;;;7.51;44.21
20889;BME280;10604;51.976;7.594;2023-03-01T14:25:33;101866.31;;;7.44;44.58
20889;BME280;10604;51.976;7.594;2023-03-01T14:28:18;101868.94;;;7.60;44.53
20889;BME280;10604;51.976;7.594;2023-03-01T14:36:01;101861.00;;;7.14;44.68
20889;BME280;10604;51.976;7.594;2023-03-01T14:38:46;101865.38;;;7.18;44.04
20889;BME280;10604;51.976;7.594;2023-03-01T14:41:18;101854.84;;;7.06;45.83